TimeEST,TemperatureF,Dew PointF,Humidity,Sea Level PressureIn,VisibilityMPH,Wind Direction,Wind SpeedMPH,Gust SpeedMPH,PrecipitationIn,Events,Conditions,WindDirDegrees,DateUTC
12:15 AM,39.2,12.2,33,30.16,10.0,WNW,6.9,-,N/A,,Clear,290,2012-12-22 05:15:00
12:35 AM,39.2,14.0,36,30.16,10.0,WNW,9.2,-,N/A,,Clear,290,2012-12-22 05:35:00
12:55 AM,37.4,14.0,38,30.17,10.0,WNW,8.1,-,N/A,,Clear,300,2012-12-22 05:55:00
1:15 AM,37.4,12.2,36,30.16,10.0,WNW,9.2,-,N/A,,Clear,290,2012-12-22 06:15:00
1:35 AM,37.4,14.0,38,30.17,10.0,WNW,9.2,16.1,N/A,,Clear,290,2012-12-22 06:35:00
1:55 AM,37.4,14.0,38,30.17,10.0,WNW,8.1,-,N/A,,Clear,300,2012-12-22 06:55:00
2:15 AM,37.4,14.0,38,30.17,10.0,NW,6.9,-,N/A,,Clear,310,2012-12-22 07:15:00
2:35 AM,37.4,14.0,38,30.18,10.0,NW,6.9,-,N/A,,Clear,310,2012-12-22 07:35:00
2:55 AM,35.6,14.0,41,30.18,10.0,WNW,5.8,-,N/A,,Clear,300,2012-12-22 07:55:00
3:15 AM,35.6,14.0,41,30.18,10.0,WNW,5.8,-,N/A,,Clear,290,2012-12-22 08:15:00
3:35 AM,35.6,14.0,41,30.18,10.0,WNW,4.6,-,N/A,,Clear,300,2012-12-22 08:35:00
3:55 AM,35.6,14.0,41,30.18,10.0,WNW,5.8,-,N/A,,Clear,300,2012-12-22 08:55:00
4:15 AM,35.6,14.0,41,30.18,10.0,WNW,4.6,-,N/A,,Clear,290,2012-12-22 09:15:00
4:35 AM,33.8,14.0,44,30.18,10.0,WNW,5.8,-,N/A,,Clear,300,2012-12-22 09:35:00
4:55 AM,33.8,15.8,48,30.19,10.0,WNW,4.6,-,N/A,,Clear,290,2012-12-22 09:55:00
5:15 AM,33.8,14.0,44,30.19,10.0,West,4.6,-,N/A,,Clear,280,2012-12-22 10:15:00
5:35 AM,32.0,17.6,55,30.19,10.0,WNW,5.8,-,N/A,,Clear,290,2012-12-22 10:35:00
5:55 AM,32.0,15.8,51,30.20,10.0,WNW,5.8,-,N/A,,Clear,290,2012-12-22 10:55:00
6:15 AM,32.0,17.6,55,30.21,10.0,West,4.6,-,N/A,,Clear,280,2012-12-22 11:15:00
6:35 AM,32.0,17.6,55,30.21,10.0,West,3.5,-,N/A,,Clear,270,2012-12-22 11:35:00
6:55 AM,30.2,19.4,64,30.22,10.0,West,4.6,-,N/A,,Clear,280,2012-12-22 11:55:00
7:15 AM,30.2,19.4,64,30.22,10.0,West,6.9,-,N/A,,Clear,280,2012-12-22 12:15:00
7:35 AM,32.0,17.6,55,30.23,10.0,WNW,3.5,-,N/A,,Clear,290,2012-12-22 12:35:00
7:55 AM,32.0,17.6,55,30.23,10.0,Calm,Calm,-,N/A,,Clear,0,2012-12-22 12:55:00
8:15 AM,32.0,17.6,55,30.23,10.0,West,3.5,-,N/A,,Clear,260,2012-12-22 13:15:00
8:35 AM,33.8,17.6,52,30.24,10.0,West,3.5,-,N/A,,Clear,270,2012-12-22 13:35:00
8:55 AM,33.8,17.6,52,30.24,10.0,West,6.9,-,N/A,,Clear,280,2012-12-22 13:55:00
9:15 AM,37.4,15.8,41,30.25,10.0,WNW,6.9,-,N/A,,Clear,290,2012-12-22 14:15:00
9:35 AM,39.2,15.8,39,30.26,10.0,West,6.9,-,N/A,,Clear,280,2012-12-22 14:35:00
9:55 AM,41.0,12.2,31,30.26,10.0,NW,9.2,-,N/A,,Clear,320,2012-12-22 14:55:00
10:15 AM,42.8,14.0,31,30.27,10.0,NW,8.1,-,N/A,,Clear,310,2012-12-22 15:15:00
10:35 AM,44.6,12.2,27,30.27,10.0,WNW,9.2,-,N/A,,Clear,290,2012-12-22 15:35:00
10:55 AM,46.4,12.2,25,30.28,10.0,NW,8.1,-,N/A,,Clear,320,2012-12-22 15:55:00
11:15 AM,46.4,12.2,25,30.27,10.0,West,9.2,-,N/A,,Clear,270,2012-12-22 16:15:00
11:35 AM,48.2,12.2,24,30.27,10.0,West,10.4,-,N/A,,Clear,260,2012-12-22 16:35:00
11:55 AM,50.0,12.2,22,30.27,10.0,West,11.5,-,N/A,,Clear,280,2012-12-22 16:55:00
12:15 PM,50.0,10.4,20,30.26,10.0,West,9.2,-,N/A,,Clear,280,2012-12-22 17:15:00
12:35 PM,51.8,12.2,21,30.25,10.0,WNW,8.1,-,N/A,,Clear,300,2012-12-22 17:35:00
12:55 PM,51.8,10.4,19,30.24,10.0,NNW,8.1,-,N/A,,Clear,330,2012-12-22 17:55:00
1:15 PM,53.6,10.4,18,30.23,10.0,West,10.4,-,N/A,,Clear,280,2012-12-22 18:15:00
1:35 PM,55.4,10.4,17,30.22,10.0,NW,6.9,-,N/A,,Clear,310,2012-12-22 18:35:00
1:55 PM,55.4,8.6,15,30.22,10.0,West,10.4,-,N/A,,Clear,280,2012-12-22 18:55:00
2:15 PM,57.2,8.6,14,30.21,10.0,NW,5.8,-,N/A,,Clear,310,2012-12-22 19:15:00
2:35 PM,57.2,6.8,13,30.20,10.0,NW,10.4,-,N/A,,Clear,310,2012-12-22 19:35:00
2:55 PM,59.0,8.6,14,30.19,10.0,West,10.4,-,N/A,,Clear,280,2012-12-22 19:55:00
3:15 PM,59.0,8.6,14,30.20,10.0,West,10.4,-,N/A,,Clear,280,2012-12-22 20:15:00
3:35 PM,59.0,5.0,12,30.19,10.0,West,6.9,-,N/A,,Clear,280,2012-12-22 20:35:00
3:55 PM,59.0,8.6,14,30.19,10.0,West,10.4,-,N/A,,Clear,270,2012-12-22 20:55:00
4:15 PM,57.2,8.6,14,30.19,10.0,West,6.9,-,N/A,,Clear,280,2012-12-22 21:15:00
4:35 PM,55.4,6.8,14,30.21,10.0,WNW,9.2,-,N/A,,Clear,290,2012-12-22 21:35:00
4:55 PM,55.4,10.4,17,30.21,10.0,West,4.6,-,N/A,,Clear,270,2012-12-22 21:55:00
5:15 PM,53.6,12.2,19,30.21,10.0,West,4.6,-,N/A,,Clear,260,2012-12-22 22:15:00
5:35 PM,51.8,14.0,22,30.21,10.0,West,5.8,-,N/A,,Clear,270,2012-12-22 22:35:00
5:55 PM,50.0,15.8,26,30.22,10.0,WNW,5.8,-,N/A,,Clear,290,2012-12-22 22:55:00
6:15 PM,50.0,14.0,24,30.22,10.0,West,4.6,-,N/A,,Clear,270,2012-12-22 23:15:00
6:35 PM,46.4,17.6,32,30.22,10.0,Calm,Calm,-,N/A,,Clear,0,2012-12-22 23:35:00
6:55 PM,44.6,21.2,39,30.23,10.0,Calm,Calm,-,N/A,,Clear,0,2012-12-22 23:55:00
7:15 PM,39.2,23.0,52,30.24,10.0,WNW,3.5,-,N/A,,Clear,290,2012-12-23 00:15:00
7:35 PM,46.4,14.0,27,30.24,10.0,WNW,4.6,-,N/A,,Clear,290,2012-12-23 00:35:00
7:55 PM,44.6,14.0,29,30.23,10.0,West,4.6,-,N/A,,Clear,280,2012-12-23 00:55:00
8:15 PM,42.8,17.6,36,30.23,10.0,West,4.6,-,N/A,,Clear,280,2012-12-23 01:15:00
8:35 PM,37.4,24.8,60,30.25,10.0,West,5.8,-,N/A,,Clear,280,2012-12-23 01:35:00
8:55 PM,42.8,19.4,39,30.24,10.0,West,4.6,-,N/A,,Clear,280,2012-12-23 01:55:00
9:15 PM,42.8,17.6,36,30.24,10.0,WNW,3.5,-,N/A,,Clear,290,2012-12-23 02:15:00
9:35 PM,41.0,19.4,42,30.24,10.0,WNW,3.5,-,N/A,,Clear,290,2012-12-23 02:35:00
9:55 PM,37.4,23.0,56,30.24,10.0,Calm,Calm,-,N/A,,Clear,0,2012-12-23 02:55:00
10:15 PM,33.8,26.6,75,30.24,10.0,Calm,Calm,-,N/A,,Clear,0,2012-12-23 03:15:00
10:35 PM,33.8,23.0,65,30.24,10.0,Calm,Calm,-,N/A,,Clear,0,2012-12-23 03:35:00
10:55 PM,32.0,26.6,80,30.24,10.0,Calm,Calm,-,N/A,,Clear,0,2012-12-23 03:55:00
11:15 PM,32.0,30.2,93,30.24,10.0,Calm,Calm,-,N/A,,Clear,0,2012-12-23 04:15:00
11:35 PM,32.0,26.6,80,30.25,10.0,Calm,Calm,-,N/A,,Clear,0,2012-12-23 04:35:00
11:55 PM,32.0,26.6,80,30.25,10.0,NW,3.5,-,N/A,,Clear,310,2012-12-23 04:55:00